createdAt,value
2017-12-12T00:01:09.830Z,15.83
2017-12-12T00:03:41.185Z,23.00
2017-12-12T00:06:12.094Z,13.77
2017-12-12T00:08:43.163Z,18.03
2017-12-12T00:11:13.938Z,15.80
2017-12-12T00:13:44.907Z,15.83
2017-12-12T00:16:15.786Z,16.87
2017-12-12T00:18:47.346Z,16.63
2017-12-12T00:21:19.079Z,21.97
2017-12-12T00:23:50.003Z,13.47
2017-12-12T00:26:20.677Z,12.83
2017-12-12T00:28:51.727Z,17.80
2017-12-12T00:31:22.166Z,20.50
2017-12-12T00:33:53.127Z,19.47
2017-12-12T00:36:24.430Z,20.23
2017-12-12T00:38:55.750Z,15.07
2017-12-12T00:41:26.455Z,20.03
2017-12-12T00:43:57.720Z,15.87
2017-12-12T00:46:28.496Z,16.77
2017-12-12T00:49:00.290Z,15.17
2017-12-12T00:51:31.131Z,17.53
2017-12-12T00:54:01.953Z,19.90
2017-12-12T00:56:33.301Z,16.80
2017-12-12T00:59:04.706Z,14.03
2017-12-12T01:01:35.364Z,16.90
2017-12-12T01:04:06.128Z,18.03
2017-12-12T01:06:37.146Z,13.00
2017-12-12T01:09:08.981Z,17.13
2017-12-12T01:11:40.044Z,17.53
2017-12-12T01:14:10.449Z,15.03
2017-12-12T01:16:41.802Z,17.73
2017-12-12T01:19:12.389Z,14.60
2017-12-12T01:21:44.029Z,15.27
2017-12-12T01:25:43.712Z,17.63
2017-12-12T01:28:15.385Z,16.30
2017-12-12T01:30:47.258Z,12.70
2017-12-12T01:33:17.791Z,14.00
2017-12-12T01:35:48.739Z,13.33
2017-12-12T01:38:19.462Z,16.40
2017-12-12T01:40:50.784Z,15.90
2017-12-12T01:43:21.626Z,11.27
2017-12-12T01:45:52.905Z,12.90
2017-12-12T01:48:24.421Z,21.33
2017-12-12T01:50:55.886Z,13.93
2017-12-12T01:53:26.635Z,11.37
2017-12-12T01:55:57.754Z,14.90
2017-12-12T01:58:29.024Z,14.30
2017-12-12T02:01:00.441Z,11.07
2017-12-12T02:03:31.656Z,15.37
2017-12-12T02:06:02.716Z,9.80
2017-12-12T02:08:34.141Z,13.00
2017-12-12T02:11:05.657Z,13.30
2017-12-12T02:13:37.312Z,14.40
2017-12-12T02:16:09.075Z,10.50
2017-12-12T02:18:39.929Z,16.07
2017-12-12T02:21:12.262Z,10.83
2017-12-12T02:23:43.806Z,12.80
2017-12-12T02:26:14.541Z,12.27
2017-12-12T02:28:46.959Z,13.13
2017-12-12T02:31:18.169Z,11.00
2017-12-12T02:33:49.170Z,13.67
2017-12-12T02:36:19.877Z,15.37
2017-12-12T02:38:51.335Z,12.60
2017-12-12T02:41:22.503Z,10.67
2017-12-12T02:43:53.437Z,9.60
2017-12-12T02:46:24.628Z,10.57
2017-12-12T02:48:55.609Z,10.47
2017-12-12T02:51:26.133Z,9.63
2017-12-12T02:53:57.626Z,10.13
2017-12-12T02:56:28.275Z,11.20
2017-12-12T02:58:59.852Z,9.70
2017-12-12T03:01:30.637Z,12.67
2017-12-12T03:04:01.539Z,10.27
2017-12-12T03:13:19.989Z,11.43
2017-12-12T03:15:50.645Z,10.53
2017-12-12T03:18:21.472Z,8.77
2017-12-12T03:20:52.301Z,16.40
2017-12-12T03:23:23.207Z,10.67
2017-12-12T03:25:53.569Z,8.93
2017-12-12T03:29:27.466Z,8.87
2017-12-12T03:31:58.670Z,9.00
2017-12-12T03:34:28.952Z,9.50
2017-12-12T03:36:59.481Z,9.97
2017-12-12T03:39:30.766Z,10.83
2017-12-12T03:42:02.472Z,15.20
2017-12-12T03:44:33.421Z,13.63
2017-12-12T03:47:04.074Z,18.20
2017-12-12T03:49:34.927Z,13.30
2017-12-12T03:52:06.776Z,11.03
2017-12-12T03:54:37.501Z,10.07
2017-12-12T03:57:08.704Z,10.50
2017-12-12T03:59:39.557Z,14.03
2017-12-12T04:02:10.218Z,10.10
2017-12-12T04:04:41.888Z,8.67
2017-12-12T04:07:12.258Z,11.03
2017-12-12T04:09:43.835Z,9.90
2017-12-12T04:12:14.724Z,12.27
2017-12-12T04:14:45.193Z,8.70
2017-12-12T04:17:17.354Z,10.57
2017-12-12T04:19:49.012Z,14.50
2017-12-12T04:22:19.518Z,9.50
2017-12-12T04:24:50.561Z,10.20
2017-12-12T04:27:21.228Z,16.73
2017-12-12T04:29:52.350Z,13.73
2017-12-12T04:32:22.922Z,15.40
2017-12-12T04:34:54.099Z,13.77
2017-12-12T04:37:24.967Z,13.97
2017-12-12T04:39:55.380Z,12.30
2017-12-12T04:42:25.897Z,11.27
2017-12-12T04:44:57.062Z,17.53
2017-12-12T04:47:27.492Z,16.60
2017-12-12T04:49:58.197Z,18.67
2017-12-12T04:52:29.147Z,10.00
2017-12-12T04:54:59.793Z,12.60
2017-12-12T04:57:30.302Z,15.33
2017-12-12T05:00:01.049Z,15.57
2017-12-12T05:02:31.757Z,16.03
2017-12-12T05:05:02.756Z,14.17
2017-12-12T05:07:35.030Z,11.30
2017-12-12T05:10:05.623Z,11.30
2017-12-12T05:12:37.834Z,14.07
2017-12-12T05:15:09.235Z,13.20
2017-12-12T05:17:39.532Z,16.30
2017-12-12T05:20:10.065Z,11.17
2017-12-12T05:22:40.961Z,8.87
2017-12-12T05:25:11.976Z,11.03
2017-12-12T05:27:42.755Z,22.57
2017-12-12T05:30:13.310Z,12.97
2017-12-12T05:32:44.717Z,17.40
2017-12-12T05:35:15.045Z,9.43
2017-12-12T05:37:45.707Z,13.17
2017-12-12T05:40:16.447Z,16.07
2017-12-12T05:42:47.404Z,13.23
2017-12-12T05:45:18.365Z,11.23
2017-12-12T05:47:49.745Z,14.57
2017-12-12T05:50:20.072Z,12.97
2017-12-12T05:52:50.778Z,18.00
2017-12-12T05:55:21.463Z,11.97
2017-12-12T05:57:52.011Z,19.10
2017-12-12T06:00:22.429Z,10.50
2017-12-12T06:02:54.439Z,14.77
2017-12-12T06:05:25.706Z,16.57
2017-12-12T06:07:56.656Z,16.63
2017-12-12T06:10:27.506Z,18.00
2017-12-12T06:12:58.224Z,14.33
2017-12-12T06:15:28.944Z,11.67
2017-12-12T06:17:59.941Z,18.33
2017-12-12T06:20:33.242Z,16.73
2017-12-12T06:23:04.921Z,13.67
2017-12-12T06:25:49.008Z,12.80
2017-12-12T06:28:19.855Z,10.03
2017-12-12T06:30:51.214Z,10.27
2017-12-12T06:33:23.231Z,13.90
2017-12-12T06:35:54.112Z,10.73
2017-12-12T06:38:25.613Z,10.90
2017-12-12T06:40:56.255Z,16.50
2017-12-12T06:43:27.142Z,11.87
2017-12-12T06:45:57.743Z,13.80
2017-12-12T06:48:28.149Z,10.07
2017-12-12T06:50:58.620Z,13.93
2017-12-12T06:53:29.023Z,14.20
2017-12-12T06:55:59.630Z,9.27
2017-12-12T06:58:29.881Z,8.40
2017-12-12T07:01:01.073Z,11.43
2017-12-12T07:03:31.627Z,16.63
2017-12-12T07:06:02.048Z,11.33
2017-12-12T07:08:32.669Z,13.73
2017-12-12T07:11:04.533Z,8.73
2017-12-12T07:13:35.127Z,9.17
2017-12-12T07:16:06.365Z,16.37
2017-12-12T07:18:36.867Z,16.30
2017-12-12T07:21:07.514Z,9.87
2017-12-12T07:23:38.336Z,8.20
2017-12-12T07:26:08.584Z,11.70
2017-12-12T07:28:38.972Z,13.10
2017-12-12T07:31:09.450Z,11.70
2017-12-12T07:33:41.134Z,9.77
2017-12-12T07:36:11.446Z,12.30
2017-12-12T07:38:41.832Z,15.20
2017-12-12T07:41:14.185Z,13.33
2017-12-12T07:43:45.742Z,11.93
2017-12-12T07:46:16.421Z,10.30
2017-12-12T07:48:46.804Z,7.87
2017-12-12T07:51:17.386Z,14.03
2017-12-12T07:53:47.884Z,8.30
2017-12-12T07:56:18.338Z,13.03
2017-12-12T07:58:49.069Z,11.03
2017-12-12T08:01:19.646Z,14.30
2017-12-12T08:03:50.297Z,12.90
2017-12-12T08:06:21.614Z,18.73
2017-12-12T08:08:52.302Z,12.63
2017-12-12T08:11:22.782Z,9.90
2017-12-12T08:13:53.418Z,7.83
2017-12-12T08:16:23.641Z,15.50
2017-12-12T08:18:54.097Z,10.13
2017-12-12T08:21:25.341Z,9.47
2017-12-12T08:23:56.290Z,11.90
2017-12-12T08:26:26.680Z,15.33
2017-12-12T08:28:57.619Z,10.90
2017-12-12T08:31:27.815Z,12.07
2017-12-12T08:33:58.113Z,12.47
2017-12-12T08:36:35.455Z,11.97
2017-12-12T08:39:11.392Z,14.97
2017-12-12T08:41:42.586Z,12.43
2017-12-12T08:44:13.117Z,13.33
2017-12-12T08:46:43.487Z,9.20
2017-12-12T08:49:14.139Z,15.57
2017-12-12T08:51:44.486Z,14.90
2017-12-12T08:54:15.751Z,15.30
2017-12-12T08:56:46.008Z,12.13
2017-12-12T08:59:16.640Z,20.53
2017-12-12T09:01:47.332Z,12.10
2017-12-12T09:04:17.977Z,13.70
2017-12-12T09:06:49.285Z,10.30
2017-12-12T09:09:19.964Z,6.47
2017-12-12T09:11:50.368Z,12.50
2017-12-12T09:14:20.796Z,25.40
2017-12-12T09:16:51.153Z,10.70
2017-12-12T09:19:21.916Z,11.03
2017-12-12T09:21:52.487Z,9.40
2017-12-12T09:24:22.915Z,8.97
2017-12-12T09:26:53.493Z,8.30
2017-12-12T09:29:23.897Z,7.97
2017-12-12T09:31:54.689Z,12.50
2017-12-12T09:34:25.222Z,12.03
2017-12-12T09:36:55.718Z,8.37
2017-12-12T09:39:26.209Z,9.10
2017-12-12T09:41:56.830Z,8.97
2017-12-12T09:44:27.171Z,7.33
2017-12-12T09:46:57.910Z,8.93
2017-12-12T09:49:28.161Z,8.60
2017-12-12T09:51:59.450Z,9.77
2017-12-12T09:54:30.198Z,9.20
2017-12-12T09:57:00.598Z,15.57
2017-12-12T09:59:30.941Z,9.10
2017-12-12T10:02:01.720Z,7.27
2017-12-12T10:04:32.860Z,9.83
2017-12-12T10:07:03.408Z,7.63
2017-12-12T10:09:34.506Z,7.70
2017-12-12T10:12:04.976Z,11.57
2017-12-12T10:14:36.227Z,10.13
2017-12-12T10:17:06.665Z,10.40
2017-12-12T10:19:37.189Z,12.67
2017-12-12T10:22:09.393Z,6.93
2017-12-12T10:24:40.528Z,11.23
2017-12-12T10:27:10.916Z,9.17
2017-12-12T10:29:41.705Z,10.07
2017-12-12T10:32:12.247Z,12.27
2017-12-12T10:34:42.433Z,9.23
2017-12-12T10:37:12.856Z,10.50
2017-12-12T10:39:43.309Z,9.17
2017-12-12T10:42:14.011Z,9.73
2017-12-12T10:44:45.294Z,13.20
2017-12-12T10:47:16.238Z,9.07
2017-12-12T10:49:46.846Z,6.63
2017-12-12T10:52:18.051Z,7.93
2017-12-12T10:54:48.495Z,7.87
2017-12-12T10:57:19.395Z,8.07
2017-12-12T10:59:49.941Z,3.43
2017-12-12T11:02:20.438Z,6.70
2017-12-12T11:04:59.067Z,6.93
2017-12-12T11:07:37.780Z,4.30
2017-12-12T11:10:08.956Z,4.00
2017-12-12T11:12:39.662Z,5.27
2017-12-12T11:15:10.022Z,6.40
2017-12-12T11:17:40.387Z,4.50
2017-12-12T11:20:11.021Z,4.27
2017-12-12T11:22:42.801Z,3.40
2017-12-12T11:25:14.170Z,3.07
2017-12-12T11:27:44.692Z,3.37
2017-12-12T11:31:17.793Z,5.80
2017-12-12T11:33:48.992Z,4.70
2017-12-12T11:36:19.572Z,3.60
2017-12-12T11:38:50.311Z,3.10
2017-12-12T11:41:20.765Z,2.73
2017-12-12T11:43:51.063Z,2.70
2017-12-12T11:46:21.714Z,3.33
2017-12-12T11:48:52.103Z,3.30
2017-12-12T11:51:23.283Z,4.50
2017-12-12T11:53:54.698Z,5.33
2017-12-12T11:56:25.337Z,3.87
2017-12-12T11:58:55.756Z,4.43
2017-12-12T12:01:26.654Z,3.63
2017-12-12T12:03:57.025Z,4.43
2017-12-12T12:06:27.476Z,3.63
2017-12-12T12:08:57.921Z,4.90
2017-12-12T12:11:29.542Z,4.90
2017-12-12T12:14:00.117Z,8.90
2017-12-12T12:16:30.453Z,3.33
2017-12-12T12:19:00.816Z,7.27
2017-12-12T12:21:31.755Z,3.13
2017-12-12T12:24:02.103Z,3.37
2017-12-12T12:26:33.015Z,4.40
2017-12-12T12:29:03.498Z,5.30
2017-12-12T12:31:33.862Z,2.63
2017-12-12T12:34:04.430Z,3.47
2017-12-12T12:36:36.077Z,3.00
2017-12-12T12:39:06.809Z,2.90
2017-12-12T12:41:38.433Z,3.47
2017-12-12T12:44:09.085Z,5.20
2017-12-12T12:46:39.822Z,2.30
2017-12-12T12:49:11.565Z,3.13
2017-12-12T12:51:42.233Z,4.17
2017-12-12T12:54:12.786Z,3.10
2017-12-12T12:56:43.674Z,2.87
2017-12-12T12:59:14.437Z,3.20
2017-12-12T13:01:45.793Z,3.13
2017-12-12T13:04:16.525Z,2.77
2017-12-12T13:06:46.942Z,3.47
2017-12-12T13:09:18.790Z,3.27
2017-12-12T13:11:49.206Z,3.30
2017-12-12T13:14:20.762Z,3.17
2017-12-12T13:16:52.100Z,5.17
2017-12-12T13:19:22.530Z,3.30
2017-12-12T13:21:52.918Z,5.70
2017-12-12T13:24:24.478Z,4.77
2017-12-12T13:26:54.753Z,6.87
2017-12-12T13:29:25.237Z,7.53
2017-12-12T13:31:55.778Z,4.73
2017-12-12T13:34:27.785Z,7.30
2017-12-12T13:36:59.691Z,6.07
2017-12-12T13:39:30.682Z,9.70
2017-12-12T13:42:01.806Z,9.00
2017-12-12T13:44:32.986Z,6.83
2017-12-12T13:47:04.261Z,9.97
2017-12-12T13:49:35.006Z,8.63
2017-12-12T13:52:05.414Z,8.10
2017-12-12T13:54:36.190Z,12.07
2017-12-12T13:57:06.615Z,14.90
2017-12-12T13:59:37.433Z,9.53
2017-12-12T14:02:07.744Z,8.23
2017-12-12T14:04:38.258Z,11.83
2017-12-12T14:07:10.414Z,10.47
2017-12-12T14:09:41.208Z,16.70
2017-12-12T14:12:11.926Z,7.97
2017-12-12T14:14:43.529Z,12.07
2017-12-12T14:17:14.025Z,15.20
2017-12-12T14:19:47.111Z,13.17
2017-12-12T14:22:30.027Z,16.30
2017-12-12T14:25:01.957Z,11.90
2017-12-12T14:27:33.499Z,14.60
2017-12-12T14:30:04.538Z,12.93
2017-12-12T14:32:35.573Z,14.60
2017-12-12T14:35:05.865Z,19.87
2017-12-12T14:37:37.380Z,11.60
2017-12-12T14:40:07.706Z,16.97
2017-12-12T14:42:37.928Z,16.70
2017-12-12T14:45:08.437Z,13.43
2017-12-12T14:47:39.705Z,13.87
2017-12-12T14:50:33.175Z,14.17
2017-12-12T14:53:04.919Z,12.37
2017-12-12T14:55:37.292Z,12.60
2017-12-12T14:58:09.342Z,13.87
2017-12-12T15:00:40.596Z,12.80
2017-12-12T15:03:12.404Z,18.00
2017-12-12T15:05:43.715Z,19.43
2017-12-12T15:08:14.221Z,20.50
2017-12-12T15:10:45.685Z,18.20
2017-12-12T15:13:16.718Z,15.03
2017-12-12T15:15:47.039Z,19.47
2017-12-12T15:18:17.619Z,20.23
2017-12-12T15:20:49.271Z,14.43
2017-12-12T15:23:20.714Z,23.23
2017-12-12T15:25:51.135Z,21.83
2017-12-12T15:28:21.566Z,20.83
2017-12-12T15:30:52.064Z,15.80
2017-12-12T15:33:22.495Z,17.73
2017-12-12T15:35:53.978Z,22.97
2017-12-12T15:38:24.889Z,15.23
2017-12-12T15:40:55.495Z,18.03
2017-12-12T15:43:25.822Z,18.20
2017-12-12T15:45:56.229Z,20.10
2017-12-12T15:48:27.668Z,15.60
2017-12-12T15:50:58.193Z,14.17
2017-12-12T15:53:28.776Z,17.10
2017-12-12T15:55:59.303Z,19.80
2017-12-12T15:58:29.792Z,21.27
2017-12-12T16:01:00.467Z,16.97
2017-12-12T16:03:30.820Z,15.40
2017-12-12T16:06:02.090Z,14.43
2017-12-12T16:08:32.698Z,16.93
2017-12-12T16:11:03.074Z,16.13
2017-12-12T16:13:33.334Z,16.43
2017-12-12T16:16:04.864Z,18.73
2017-12-12T16:18:35.217Z,19.20
2017-12-12T16:21:06.561Z,16.63
2017-12-12T16:23:38.053Z,16.20
2017-12-12T16:26:08.560Z,21.07
2017-12-12T16:28:39.282Z,17.20
2017-12-12T16:31:09.530Z,19.10
2017-12-12T16:33:39.861Z,16.87
2017-12-12T16:36:10.250Z,15.80
2017-12-12T16:38:41.307Z,19.83
2017-12-12T16:41:11.907Z,20.40
2017-12-12T16:43:42.170Z,20.40
2017-12-12T16:46:12.657Z,20.20
2017-12-12T16:48:44.310Z,18.10
2017-12-12T16:51:15.441Z,22.17
2017-12-12T16:53:46.611Z,17.70
2017-12-12T16:56:17.139Z,23.03
2017-12-12T16:58:47.814Z,28.10
2017-12-12T17:01:18.325Z,24.97
2017-12-12T17:03:48.657Z,21.13
2017-12-12T17:06:20.008Z,20.07
2017-12-12T17:08:51.509Z,19.63
2017-12-12T17:11:22.138Z,21.30
2017-12-12T17:13:53.681Z,17.87
2017-12-12T17:16:24.988Z,17.83
2017-12-12T17:18:55.565Z,29.77
2017-12-12T17:21:26.025Z,20.93
2017-12-12T17:23:56.893Z,27.13
2017-12-12T17:26:28.757Z,21.47
2017-12-12T17:28:59.119Z,21.03
2017-12-12T17:31:30.866Z,26.77
2017-12-12T17:34:02.204Z,24.83
2017-12-12T17:36:33.201Z,24.47
2017-12-12T17:39:03.697Z,26.13
2017-12-12T17:41:34.120Z,23.93
2017-12-12T17:44:05.357Z,21.13
2017-12-12T17:46:36.603Z,25.73
2017-12-12T17:49:07.787Z,19.57
2017-12-12T17:51:38.873Z,27.83
2017-12-12T17:54:09.288Z,21.37
2017-12-12T17:56:39.873Z,31.57
2017-12-12T17:59:10.219Z,24.23
2017-12-12T18:01:41.955Z,26.30
2017-12-12T18:04:12.281Z,23.13
2017-12-12T18:06:42.676Z,24.17
2017-12-12T18:09:13.711Z,22.47
2017-12-12T18:11:45.196Z,28.53
2017-12-12T18:14:15.958Z,24.00
2017-12-12T18:16:46.389Z,24.43
2017-12-12T18:19:16.989Z,31.43
2017-12-12T18:21:47.343Z,26.07
2017-12-12T18:24:17.696Z,26.40
2017-12-12T18:26:49.038Z,27.73
2017-12-12T18:29:20.270Z,25.03
2017-12-12T18:31:50.551Z,28.47
2017-12-12T18:34:22.309Z,29.00
2017-12-12T18:36:52.692Z,22.37
2017-12-12T18:39:30.541Z,26.07
2017-12-12T18:42:03.009Z,25.23
2017-12-12T18:44:33.750Z,23.53
2017-12-12T18:47:04.071Z,26.90
2017-12-12T18:49:34.401Z,32.00
2017-12-12T18:52:04.373Z,29.73
2017-12-12T18:54:34.853Z,28.83
2017-12-12T18:57:05.217Z,28.50
2017-12-12T18:59:35.568Z,27.70
2017-12-12T19:02:06.274Z,42.30
2017-12-12T19:04:37.553Z,23.40
2017-12-12T19:07:08.039Z,30.70
2017-12-12T19:09:38.541Z,27.33
2017-12-12T19:12:09.244Z,30.23
2017-12-12T19:14:39.731Z,30.43
2017-12-12T19:17:10.952Z,25.57
2017-12-12T19:19:41.470Z,32.43
2017-12-12T19:22:12.044Z,34.00
2017-12-12T19:24:42.442Z,30.97
2017-12-12T19:27:15.909Z,31.17
2017-12-12T19:29:46.509Z,32.53
2017-12-12T19:32:17.116Z,32.40
2017-12-12T19:34:48.823Z,38.33
2017-12-12T19:37:19.291Z,29.47
2017-12-12T19:39:50.482Z,24.10
2017-12-12T19:42:20.882Z,38.87
2017-12-12T19:44:51.375Z,29.83
2017-12-12T19:47:21.954Z,30.47
2017-12-12T19:49:53.535Z,27.40
2017-12-12T19:52:24.545Z,35.73
2017-12-12T19:54:54.955Z,28.60
2017-12-12T19:57:25.595Z,28.30
2017-12-12T19:59:56.517Z,25.80
2017-12-12T20:02:27.215Z,25.30
2017-12-12T20:04:57.811Z,28.93
2017-12-12T20:07:28.342Z,31.03
2017-12-12T20:09:58.845Z,27.73
2017-12-12T20:12:29.386Z,30.50
2017-12-12T20:15:00.185Z,29.17
2017-12-12T20:17:30.474Z,28.63
2017-12-12T20:20:00.989Z,20.93
2017-12-12T20:22:31.384Z,25.70
2017-12-12T20:25:01.874Z,20.00
2017-12-12T20:27:32.430Z,21.63
2017-12-12T20:30:04.116Z,45.97
2017-12-12T20:32:35.576Z,30.53
2017-12-12T20:35:06.421Z,27.67
2017-12-12T20:37:37.046Z,22.80
2017-12-12T20:40:08.963Z,26.20
2017-12-12T20:42:40.449Z,21.10
2017-12-12T20:45:11.415Z,23.00
2017-12-12T20:47:42.958Z,20.03
2017-12-12T20:50:13.332Z,21.77
2017-12-12T20:52:44.262Z,22.37
2017-12-12T20:55:15.442Z,26.10
2017-12-12T20:57:45.781Z,23.60
2017-12-12T21:00:16.099Z,21.50
2017-12-12T21:02:46.873Z,24.87
2017-12-12T21:05:18.294Z,24.93
2017-12-12T21:07:48.645Z,21.73
2017-12-12T21:10:18.850Z,18.00
2017-12-12T21:12:56.988Z,19.53
2017-12-12T21:15:30.101Z,16.87
2017-12-12T21:18:00.518Z,25.43
2017-12-12T21:20:30.822Z,19.37
2017-12-12T21:23:01.894Z,20.43
2017-12-12T21:25:32.633Z,25.13
2017-12-12T21:28:03.248Z,24.80
2017-12-12T21:30:34.405Z,24.50
2017-12-12T21:33:04.806Z,21.80
2017-12-12T21:35:36.149Z,24.80
2017-12-12T21:38:06.713Z,19.70
2017-12-12T21:40:36.889Z,20.03
2017-12-12T21:43:07.302Z,23.00
2017-12-12T21:45:37.684Z,21.00
2017-12-12T21:48:08.377Z,22.47
2017-12-12T21:50:39.939Z,31.33
2017-12-12T21:53:10.293Z,29.10
2017-12-12T21:55:40.693Z,25.87
2017-12-12T21:58:11.756Z,24.03
2017-12-12T22:00:42.256Z,22.47
2017-12-12T22:03:12.890Z,35.10
2017-12-12T22:05:43.478Z,30.60
2017-12-12T22:08:14.174Z,23.80
2017-12-12T22:10:44.584Z,25.17
2017-12-12T22:13:14.896Z,24.77
2017-12-12T22:15:45.110Z,21.87
2017-12-12T22:18:16.640Z,28.13
2017-12-12T22:20:47.609Z,22.60
2017-12-12T22:23:18.297Z,24.03
2017-12-12T22:25:49.359Z,22.83
2017-12-12T22:28:20.025Z,22.83
2017-12-12T22:30:50.725Z,22.33
2017-12-12T22:33:21.871Z,28.23
2017-12-12T22:35:54.050Z,26.07
2017-12-12T22:38:24.985Z,19.80
2017-12-12T22:40:57.468Z,25.03
2017-12-12T22:43:28.661Z,22.10
2017-12-12T22:45:59.081Z,22.80
2017-12-12T22:48:29.627Z,27.00
2017-12-12T22:51:00.295Z,23.77
2017-12-12T22:53:31.900Z,23.50
2017-12-12T22:56:02.404Z,28.77
2017-12-12T22:58:33.301Z,36.87
2017-12-12T23:01:04.480Z,27.30
2017-12-12T23:03:34.989Z,28.57
2017-12-12T23:06:05.661Z,36.00
2017-12-12T23:08:36.104Z,26.17
2017-12-12T23:11:06.962Z,28.40
2017-12-12T23:13:37.433Z,38.93
2017-12-12T23:16:07.918Z,33.17
2017-12-12T23:18:38.988Z,27.23
2017-12-12T23:21:09.856Z,33.30
2017-12-12T23:23:40.086Z,28.03
2017-12-12T23:26:10.701Z,26.47
2017-12-12T23:28:40.976Z,34.33
2017-12-12T23:31:11.636Z,27.00
2017-12-12T23:33:41.838Z,29.07
2017-12-12T23:36:13.885Z,30.13
2017-12-12T23:38:44.498Z,27.33
2017-12-12T23:41:15.013Z,30.90
2017-12-12T23:43:45.380Z,31.57
2017-12-12T23:46:16.964Z,36.73
2017-12-12T23:48:48.045Z,29.80
2017-12-12T23:51:18.988Z,32.83
2017-12-12T23:53:49.406Z,31.90
2017-12-12T23:56:19.862Z,34.23
2017-12-12T23:58:51.037Z,30.63
